• Join FlightAware (Why Join?)
  • Login
  • US Flag 
Gobble Gobble! 
12:45AM EST


 

Airport Tracker/Info


-or-


 

Live Flight TrackerFlight Track Log ✈ N534QS ✈ 16-May-2013 ✈ LSZH / ZRH - KHPN

Flight Track Log - Related Links

Times and Time Zones

All times are in EDT time to prevent confusion due to time zone crossing. See the N534QS flight status page for this flight to view local times or setup timezone preferences in your user account.

Time Position Orientation Groundspeed Altitude Reporting Facility
EDT Latitude Longitude Course Direction KTS MPH feet Rate Location/Type
02:51PM 52.2864 -15.4767 296° West  Level Estimated
02:52PM 52.3031 -15.6777 278° West  Level Estimated
02:53PM 52.3194 -15.8789 278° West  Level Estimated
02:54PM 52.3354 -16.0802 277° West  Level Estimated
02:55PM 52.3511 -16.2817 277° West  Level Estimated
02:56PM 52.3664 -16.4833 277° West  Level Estimated
02:57PM 52.3814 -16.6851 277° West  Level Estimated
02:58PM 52.3960 -16.8870 277° West  Level Estimated
02:59PM 52.4103 -17.0890 277° West  Level Estimated
03:00PM 52.4242 -17.2911 277° West  Level Estimated
03:01PM 52.4378 -17.4934 276° West  Level Estimated
03:02PM 52.4510 -17.6958 276° West  Level Estimated
03:03PM 52.4639 -17.8983 276° West  Level Estimated
03:04PM 52.4765 -18.1010 276° West  Level Estimated
03:05PM 52.4887 -18.3037 276° West  Level Estimated
03:06PM 52.5005 -18.5066 276° West  Level Estimated
03:07PM 52.5120 -18.7096 275° West  Level Estimated
03:08PM 52.5232 -18.9126 275° West  Level Estimated
03:09PM 52.5340 -19.1158 275° West  Level Estimated
03:10PM 52.5445 -19.3191 275° West  Level Estimated
03:11PM 52.5546 -19.5225 275° West  Level Estimated
03:12PM 52.5644 -19.7259 275° West  Level Estimated
03:13PM 52.5738 -19.9295 274° West  Level Estimated
03:14PM 52.5829 -20.1331 274° West  Level Estimated
03:15PM 52.5916 -20.3368 274° West  Level Estimated
03:16PM 52.5999 -20.5406 274° West  Level Estimated
03:17PM 52.6080 -20.7445 274° West  Level Estimated
03:18PM 52.6156 -20.9485 274° West  Level Estimated
03:19PM 52.6230 -21.1525 273° West  Level Estimated
03:20PM 52.6299 -21.3566 273° West  Level Estimated
03:21PM 52.6365 -21.5607 273° West  Level Estimated
03:22PM 52.6428 -21.7649 273° West  Level Estimated
03:23PM 52.6487 -21.9692 273° West  Level Estimated
03:23PM 53.0000 -20.0000 274° West 424 488 40,000  Level ETMS Enhanced Traffic Management System
03:24PM 52.6543 -22.1735 273° West  Level Estimated
03:25PM 52.6595 -22.3779 272° West  Level Estimated
03:26PM 52.6644 -22.5823 272° West  Level Estimated
03:27PM 52.6689 -22.7868 272° West  Level Estimated
03:28PM 52.6730 -22.9913 272° West  Level Estimated
03:29PM 53.1039 -24.5090 270° West 424 488 40,000  Level FlightAware Transoceanic
03:30PM 53.1046 -24.7054 270° West 424 488 40,000  Level FlightAware Transoceanic
03:31PM 53.1049 -24.9018 270° West 424 488 40,000  Level FlightAware Transoceanic
03:32PM 53.1049 -25.0982 270° West 424 488 40,000  Level FlightAware Transoceanic
03:33PM 53.1046 -25.2946 270° West 424 488 40,000  Level FlightAware Transoceanic
03:34PM 53.1039 -25.4910 270° West 424 488 40,000  Level FlightAware Transoceanic
03:35PM 53.1030 -25.6874 269° West 424 488 40,000  Level FlightAware Transoceanic
03:36PM 53.1017 -25.8837 269° West 424 488 40,000  Level FlightAware Transoceanic
03:37PM 53.1001 -26.0801 269° West 424 488 40,000  Level FlightAware Transoceanic
03:38PM 53.0981 -26.2764 269° West 424 488 40,000  Level FlightAware Transoceanic
03:39PM 53.0959 -26.4728 269° West 424 488 40,000  Level FlightAware Transoceanic
03:40PM 53.0933 -26.6691 269° West 424 488 40,000  Level FlightAware Transoceanic
03:41PM 53.0904 -26.8654 269° West 424 488 40,000  Level FlightAware Transoceanic
03:42PM 53.0871 -27.0616 268° West 424 488 40,000  Level FlightAware Transoceanic
03:43PM 53.0836 -27.2578 268° West 424 488 40,000  Level FlightAware Transoceanic
03:44PM 53.0797 -27.4540 268° West 424 488 40,000  Level FlightAware Transoceanic
03:45PM 53.0755 -27.6502 268° West 424 488 40,000  Level FlightAware Transoceanic
03:46PM 53.0710 -27.8463 268° West 424 488 40,000  Level FlightAware Transoceanic
03:47PM 53.0661 -28.0423 268° West 424 488 40,000  Level FlightAware Transoceanic
03:48PM 53.0610 -28.2383 267° West 424 488 40,000  Level FlightAware Transoceanic
03:49PM 53.0555 -28.4343 267° West 424 488 40,000  Level FlightAware Transoceanic
03:50PM 53.0497 -28.6302 267° West 424 488 40,000  Level FlightAware Transoceanic
03:51PM 53.0435 -28.8261 267° West 424 488 40,000  Level FlightAware Transoceanic
03:52PM 53.0371 -29.0219 267° West 424 488 40,000  Level FlightAware Transoceanic
03:53PM 53.0303 -29.2177 267° West 424 488 40,000  Level FlightAware Transoceanic
03:54PM 53.0232 -29.4133 266° West 424 488 40,000  Level FlightAware Transoceanic
03:55PM 53.0158 -29.6090 266° West 424 488 40,000  Level FlightAware Transoceanic
03:56PM 53.0081 -29.8045 266° West 424 488 40,000  Level FlightAware Transoceanic
03:57PM 52.9996 -30.0102 266° West  Level FlightAware Approximate
03:58PM 52.9989 -30.0204 265° West  Level FlightAware Approximate
03:59PM 52.9871 -30.2257 265° West  Level FlightAware Approximate
04:00PM 52.9750 -30.4307 264° West  Level FlightAware Approximate
04:01PM 52.9626 -30.6357 264° West  Level FlightAware Approximate
04:01PM 53.0000 -30.0000 265° West 452 520 40,000  Level ETMS Enhanced Traffic Management System
04:02PM 52.9497 -30.8406 264° West  Level FlightAware Approximate
04:03PM 52.9366 -31.0453 264° West  Level FlightAware Approximate
04:04PM 52.9231 -31.2500 264° West  Level FlightAware Approximate
04:05PM 52.9092 -31.4545 264° West  Level FlightAware Approximate
04:06PM 52.8950 -31.6588 264° West  Level FlightAware Approximate
04:07PM 52.8495 -32.2817 263° West 452 520 40,000  Level FlightAware Transoceanic
04:08PM 52.8336 -32.4884 263° West 452 520 40,000  Level FlightAware Transoceanic
04:09PM 52.8174 -32.6948 263° West 452 520 40,000  Level FlightAware Transoceanic
04:10PM 52.8008 -32.9011 262° West 452 520 40,000  Level FlightAware Transoceanic
04:11PM 52.7839 -33.1072 262° West 452 520 40,000  Level FlightAware Transoceanic
04:12PM 52.7666 -33.3132 262° West 452 520 40,000  Level FlightAware Transoceanic
04:13PM 52.7490 -33.5190 262° West 452 520 40,000  Level FlightAware Transoceanic
04:14PM 52.7310 -33.7247 262° West 452 520 40,000  Level FlightAware Transoceanic
04:15PM 52.7127 -33.9301 262° West 452 520 40,000  Level FlightAware Transoceanic
04:16PM 52.6940 -34.1354 261° West 452 520 40,000  Level FlightAware Transoceanic
04:17PM 52.6749 -34.3405 261° West 452 520 40,000  Level FlightAware Transoceanic
04:18PM 52.6555 -34.5455 261° West 452 520 40,000  Level FlightAware Transoceanic
04:19PM 52.6357 -34.7502 261° West 452 520 40,000  Level FlightAware Transoceanic
04:20PM 52.6156 -34.9548 261° West 452 520 40,000  Level FlightAware Transoceanic
04:21PM 52.5952 -35.1592 261° West 452 520 40,000  Level FlightAware Transoceanic
04:22PM 52.5743 -35.3634 260° West 452 520 40,000  Level FlightAware Transoceanic
04:23PM 52.5532 -35.5673 260° West 452 520 40,000  Level FlightAware Transoceanic
04:24PM 52.5317 -35.7711 260° West 452 520 40,000  Level FlightAware Transoceanic
04:25PM 52.5098 -35.9747 260° West 452 520 40,000  Level FlightAware Transoceanic
04:26PM 52.4876 -36.1781 260° West 452 520 40,000  Level FlightAware Transoceanic
04:27PM 52.4650 -36.3813 260° West 452 520 40,000  Level FlightAware Transoceanic
04:28PM 52.4421 -36.5843 259° West 452 520 40,000  Level FlightAware Transoceanic
04:29PM 52.4188 -36.7870 259° West 452 520 40,000  Level FlightAware Transoceanic
04:30PM 52.3952 -36.9896 259° West 452 520 40,000  Level FlightAware Transoceanic
04:31PM 52.3713 -37.1919 259° West 452 520 40,000  Level FlightAware Transoceanic
04:32PM 52.3470 -37.3940 259° West 452 520 40,000  Level FlightAware Transoceanic
04:33PM 52.3223 -37.5959 259° West 452 520 40,000  Level FlightAware Transoceanic
04:34PM 52.2973 -37.7975 258° West 452 520 40,000  Level FlightAware Transoceanic
04:35PM 52.2720 -37.9989 258° West 452 520 40,000  Level FlightAware Transoceanic
04:36PM 52.2463 -38.2001 258° West 452 520 40,000  Level FlightAware Transoceanic
04:37PM 52.2203 -38.4011 258° West 452 520 40,000  Level FlightAware Transoceanic
04:38PM 52.1940 -38.6018 258° West 452 520 40,000  Level FlightAware Transoceanic
04:39PM 52.1673 -38.8023 258° West 452 520 40,000  Level FlightAware Transoceanic
04:40PM 52.1402 -39.0025 258° West 452 520 40,000  Level FlightAware Transoceanic
04:41PM 52.1129 -39.2025 257° West 452 520 40,000  Level FlightAware Transoceanic
04:42PM 52.0852 -39.4023 257° West 452 520 40,000  Level FlightAware Transoceanic
04:43PM 52.0571 -39.6018 257° West 452 520 40,000  Level FlightAware Transoceanic
04:44PM 52.0287 -39.8010 257° West 452 520 40,000 600 Level FlightAware Transoceanic
04:45PM 52.0028 -39.9982 258° West  Level Estimated
04:46PM 51.9766 -40.1951 258° West  Level Estimated
04:47PM 51.9501 -40.3919 258° West  Level Estimated
04:48PM 51.9232 -40.5883 258° West  Level Estimated
04:48PM 52.0000 -40.0000 265° West 453 521 43,000  Level ETMS Enhanced Traffic Management System
04:49PM 51.8961 -40.7846 257° West  Level Estimated
04:50PM 51.8685 -40.9806 257° West  Level Estimated
04:51PM 51.8407 -41.1764 257° West  Level Estimated
04:52PM 51.8125 -41.3719 257° West  Level Estimated
04:53PM 51.7841 -41.5672 257° West  Level Estimated
04:54PM 51.8833 -41.8297 263° West 453 521 43,000  Level FlightAware Transoceanic
04:55PM 51.8686 -42.0324 263° West 453 521 43,000  Level FlightAware Transoceanic
04:56PM 51.8535 -42.2350 263° West 453 521 43,000  Level FlightAware Transoceanic
04:57PM 51.8381 -42.4374 263° West 453 521 43,000  Level FlightAware Transoceanic
04:58PM 51.8224 -42.6397 263° West 453 521 43,000  Level FlightAware Transoceanic
04:59PM 51.8063 -42.8418 263° West 453 521 43,000  Level FlightAware Transoceanic
05:00PM 51.7898 -43.0438 262° West 453 521 43,000  Level FlightAware Transoceanic
05:01PM 51.7730 -43.2456 262° West 453 521 43,000  Level FlightAware Transoceanic
05:02PM 51.7559 -43.4473 262° West 453 521 43,000  Level FlightAware Transoceanic
05:03PM 51.7384 -43.6488 262° West 453 521 43,000  Level FlightAware Transoceanic
05:04PM 51.7206 -43.8502 262° West 453 521 43,000  Level FlightAware Transoceanic
05:05PM 51.7024 -44.0514 262° West 453 521 43,000  Level FlightAware Transoceanic
05:06PM 51.6839 -44.2525 261° West 453 521 43,000  Level FlightAware Transoceanic
05:07PM 51.6650 -44.4534 261° West 453 521 43,000  Level FlightAware Transoceanic
05:08PM 51.6458 -44.6541 261° West 453 521 43,000  Level FlightAware Transoceanic
05:09PM 51.6263 -44.8546 261° West 453 521 43,000  Level FlightAware Transoceanic
05:10PM 51.6064 -45.0550 261° West 453 521 43,000  Level FlightAware Transoceanic
05:11PM 51.5861 -45.2552 261° West 453 521 43,000  Level FlightAware Transoceanic
05:12PM 51.5656 -45.4552 261° West 453 521 43,000  Level FlightAware Transoceanic
05:13PM 51.5447 -45.6550 260° West 453 521 43,000  Level FlightAware Transoceanic
05:14PM 51.5234 -45.8547 260° West 453 521 43,000  Level FlightAware Transoceanic
05:15PM 51.5018 -46.0541 260° West 453 521 43,000  Level FlightAware Transoceanic
05:16PM 51.4799 -46.2534 260° West 453 521 43,000  Level FlightAware Transoceanic
05:17PM 51.4576 -46.4525 260° West 453 521 43,000  Level FlightAware Transoceanic
05:18PM 51.4351 -46.6514 260° West 453 521 43,000  Level FlightAware Transoceanic
05:19PM 51.4121 -46.8501 259° West 453 521 43,000  Level FlightAware Transoceanic
05:20PM 51.3889 -47.0485 259° West 453 521 43,000  Level FlightAware Transoceanic
05:21PM 51.3652 -47.2468 259° West 453 521 43,000  Level FlightAware Transoceanic
05:22PM 51.3413 -47.4449 259° West 453 521 43,000  Level FlightAware Transoceanic
05:23PM 51.3170 -47.6427 259° West 453 521 43,000  Level FlightAware Transoceanic
05:24PM 51.2924 -47.8404 259° West 453 521 43,000  Level FlightAware Transoceanic
05:25PM 51.2675 -48.0378 259° West 453 521 43,000  Level FlightAware Transoceanic
05:26PM 51.2422 -48.2351 258° West 453 521 43,000  Level FlightAware Transoceanic
05:27PM 51.2166 -48.4321 258° West 453 521 43,000  Level FlightAware Transoceanic
05:28PM 51.1907 -48.6289 258° West 453 521 43,000  Level FlightAware Transoceanic
05:29PM 51.1644 -48.8254 258° West 453 521 43,000  Level FlightAware Transoceanic
05:30PM 51.1379 -49.0218 258° West 453 521 43,000  Level FlightAware Transoceanic
05:31PM 51.1109 -49.2179 258° West 453 521 43,000  Level FlightAware Transoceanic
05:32PM 51.0837 -49.4138 257° West 453 521 43,000  Level FlightAware Transoceanic
05:33PM 51.0561 -49.6094 257° West 453 521 43,000  Level FlightAware Transoceanic
05:34PM 51.0282 -49.8048 257° West 453 521 43,000  Level FlightAware Transoceanic
05:35PM 51.0000 -50.0000 250° West 458 527 43,000  Level ETMS Enhanced Traffic Management System
05:35PM 51.0004 -49.9970 257° West  Level FlightAware Approximate
05:36PM 50.9724 -50.1890 257° West  Level FlightAware Approximate
05:36PM 50.9333 -50.2167 249° West 470 541 43,000  Level Gander Center
05:37PM 50.9484 -50.1549 250° West  Level FlightAware Approximate
05:37PM 50.8833 -50.4167 248° West 470 541 43,000  Level Gander Center
05:37PM 50.8667 -50.4833 248° West 470 541 43,000  Level Moncton Center
05:38PM 50.9064 -50.3398 250° West  Level FlightAware Approximate
05:38PM 50.8000 -50.6833 242° Southwest 470 541 43,000  Level Moncton Center
05:39PM 50.8641 -50.5243 250° West  Level FlightAware Approximate
05:39PM 50.7833 -50.8500 261° West 470 541 43,000  Level Moncton Center
05:40PM 50.8215 -50.7086 250° West  Level FlightAware Approximate
05:40PM 50.7333 -51.0500 249° West 460 529 43,000  Level Moncton Center
05:41PM 50.6860 -51.3203 249° West 458 527 43,000  Level FlightAware Transoceanic
05:41PM 50.6833 -51.2500 249° West 470 541 43,000  Level Moncton Center
05:42PM 50.6667 -51.3667 257° West 470 541 43,000  Level Gander Center
05:42PM 50.6333 -51.5167 251° West 470 541 43,000  Level Gander Center
05:43PM 50.6000 -51.6500 249° West 470 541 43,000  Level Moncton Center
05:44PM 50.5500 -51.8167 245° Southwest 470 541 43,000  Level Moncton Center
05:45PM 50.5000 -52.0167 249° West 470 541 43,000  Level Moncton Center
05:46PM 50.4833 -52.1500 259° West 470 541 43,000  Level Gander Center
05:47PM 50.4333 -52.3167 245° Southwest 460 529 43,000  Level Gander Center
05:47PM 50.4167 -52.4167 255° West 470 541 43,000  Level Moncton Center
05:48PM 50.3667 -52.5833 245° Southwest 470 541 43,000  Level Moncton Center
05:49PM 50.3167 -52.7833 249° West 460 529 43,000  Level Moncton Center
05:50PM 50.2833 -52.9667 254° West 470 541 43,000  Level Moncton Center
05:51PM 50.2500 -53.0833 246° West 470 541 43,000  Level Gander Center
05:51PM 50.2167 -53.2167 249° West 470 541 43,000  Level Gander Center
05:52PM 50.1667 -53.4167 249° West 470 541 43,000  Level Gander Center
05:53PM 50.1500 -53.5333 257° West 470 541 43,000  Level Moncton Center
05:54PM 50.1000 -53.7333 249° West 460 529 43,000  Level Moncton Center
05:55PM 50.0500 -53.9167 247° West 470 541 43,000  Level Moncton Center
05:56PM 50.0000 -54.1167 249° West 470 541 43,000  Level Moncton Center
05:57PM 49.9500 -54.2833 245° Southwest 460 529 43,000  Level Moncton Center
05:58PM 49.9167 -54.4000 246° West 460 529 43,000  Level Gander Center
05:59PM 49.8833 -54.6167 257° West 460 529 43,000  Level Gander Center
06:00PM 49.8167 -54.7667 235° Southwest 460 529 43,000  Level Gander Center
06:01PM 49.7833 -54.9667 256° West 460 529 43,000  Level Gander Center
06:02PM 49.7167 -55.1500 241° Southwest 460 529 43,000  Level Gander Center
06:03PM 49.6833 -55.3333 254° West 460 529 43,000  Level Gander Center
06:04PM 49.6167 -55.5167 241° Southwest 460 529 43,000  Level Gander Center
06:05PM 49.5833 -55.6833 253° West 460 529 43,000  Level Gander Center
06:06PM 49.5167 -55.8667 241° Southwest 460 529 43,000  Level Gander Center
06:07PM 49.4833 -56.0500 254° West 460 529 43,000  Level Gander Center
06:07PM 49.4500 -56.1500 243° Southwest 460 529 43,000  Level Moncton Center
06:08PM 49.4000 -56.3167 245° Southwest 470 541 43,000  Level Moncton Center
06:09PM 49.3667 -56.4333 246° West 470 541 43,000  Level Gander Center
06:10PM 49.3167 -56.6167 247° West 460 529 43,000  Level Gander Center
06:11PM 49.2667 -56.8000 247° West 470 541 43,000  Level Gander Center
06:12PM 49.2167 -56.9833 247° West 460 529 43,000  Level Gander Center
06:13PM 49.1500 -57.1333 236° Southwest 470 541 43,000  Level Gander Center
06:14PM 49.1167 -57.3167 255° West 470 541 43,000  Level Gander Center
06:14PM 49.0833 -57.4167 243° Southwest 470 541 43,000  Level Moncton Center
06:15PM 49.0500 -57.5000 239° Southwest 470 541 43,000  Level Gander Center
06:16PM 49.0167 -57.6833 255° West 460 529 43,000  Level Gander Center
06:17PM 48.9500 -57.8667 241° Southwest 460 529 43,000  Level Gander Center
06:18PM 48.8833 -58.0500 241° Southwest 460 529 43,000  Level Gander Center
06:18PM 48.8667 -58.1333 253° West 460 529 43,000  Level Moncton Center
06:19PM 48.8333 -58.2333 243° Southwest 470 541 43,000  Level Gander Center
06:20PM 48.7833 -58.4167 248° West 470 541 43,000  Level Gander Center
06:21PM 48.7167 -58.6000 241° Southwest 470 541 43,000  Level Gander Center
06:21PM 48.7000 -58.6667 249° West 470 541 43,000  Level Moncton Center
06:22PM 48.6500 -58.8500 248° West 470 541 43,000  Level Moncton Center
06:23PM 48.6000 -59.0333 248° West 470 541 43,000  Level Moncton Center
06:24PM 48.5667 -59.1333 243° Southwest 470 541 43,000  Level Gander Center
06:24PM 48.5333 -59.1833 225° Southwest 470 541 43,000  Level Moncton Center
06:25PM 48.4833 -59.4000 251° West 470 541 43,000  Level Moncton Center
06:26PM 48.4167 -59.5500 236° Southwest 470 541 43,000  Level Moncton Center
06:27PM 48.3667 -59.7333 248° West 470 541 43,000  Level Moncton Center
06:28PM 48.3000 -59.9167 241° Southwest 470 541 43,000  Level Moncton Center
06:29PM 48.2333 -60.1000 241° Southwest 470 541 43,000  Level Moncton Center
06:30PM 48.1833 -60.2833 248° West 480 552 43,000  Level Moncton Center
06:31PM 48.1500 -60.3833 243° Southwest 480 552 43,000  Level Gander Center
06:31PM 48.1167 -60.4667 239° Southwest 480 552 43,000  Level Moncton Center
06:32PM 48.0500 -60.6333 239° Southwest 480 552 43,000  Level Moncton Center
06:33PM 48.0167 -60.8167 255° West 480 552 43,000  Level Moncton Center
06:34PM 47.9500 -61.0000 242° Southwest 470 541 43,000  Level Moncton Center
06:35PM 47.8833 -61.1500 237° Southwest 470 541 43,000  Level Moncton Center
06:36PM 47.8500 -61.2500 244° Southwest 480 552 43,000  Level Gander Center
06:36PM 47.8333 -61.3333 253° West 480 552 43,000  Level Moncton Center
06:37PM 47.7667 -61.5000 239° Southwest 480 552 43,000  Level Moncton Center
06:38PM 47.7000 -61.6833 242° Southwest 480 552 43,000  Level Moncton Center
06:39PM 47.6333 -61.8667 242° Southwest 470 541 43,000  Level Moncton Center
06:40PM 47.6000 -62.0333 254° West 470 541 43,000  Level Moncton Center
06:41PM 47.5500 -62.1500 238° Southwest 470 541 43,000  Level Gander Center
06:41PM 47.5167 -62.2167 234° Southwest 480 552 43,000  Level Moncton Center
06:42PM 47.4667 -62.3667 244° Southwest 480 552 43,000  Level Moncton Center
06:43PM 47.4000 -62.5667 244° Southwest 470 541 43,000  Level Moncton Center
06:44PM 47.3333 -62.7167 237° Southwest 470 541 43,000  Level Moncton Center
06:45PM 47.2667 -62.9167 244° Southwest 480 552 43,000  Level Moncton Center
06:46PM 47.2000 -63.0667 237° Southwest 470 541 43,000  Level Moncton Center
06:47PM 47.1500 -63.2333 246° West 470 541 43,000  Level Moncton Center
06:48PM 47.0833 -63.4167 242° Southwest 470 541 43,000  Level Moncton Center
06:49PM 47.0167 -63.5833 240° Southwest 470 541 43,000  Level Moncton Center
06:50PM 46.9833 -63.6833 244° Southwest 470 541 43,000  Level Gander Center
06:51PM 46.9167 -63.8500 240° Southwest 460 529 43,000  Level Gander Center
06:51PM 46.9000 -63.9000 244° Southwest 460 529 43,000  Level Moncton Center
06:52PM 46.8333 -64.0833 242° Southwest 460 529 43,000  Level Moncton Center
06:53PM 46.7667 -64.2333 237° Southwest 460 529 43,000  Level Moncton Center
06:54PM 46.7167 -64.4000 246° West 450 518 43,000  Level Moncton Center
06:55PM 46.6500 -64.5500 237° Southwest 450 518 43,000  Level Moncton Center
06:56PM 46.5833 -64.7167 240° Southwest 450 518 43,000  Level Moncton Center
06:57PM 46.5333 -64.8667 244° Southwest 440 506 43,000  Level Moncton Center
06:58PM 46.4667 -65.0333 240° Southwest 440 506 43,000  Level Moncton Center
06:59PM 46.4000 -65.1667 234° Southwest 440 506 43,000  Level Moncton Center
07:00PM 46.3333 -65.3500 242° Southwest 440 506 43,000  Level Moncton Center
07:01PM 46.2667 -65.4833 234° Southwest 440 506 43,000  Level Moncton Center
07:02PM 46.2000 -65.6500 240° Southwest 440 506 43,000  Level Moncton Center
07:03PM 46.1500 -65.8000 244° Southwest 450 518 43,000  Level Moncton Center
07:04PM 46.0833 -65.9333 234° Southwest 450 518 43,000  Level Moncton Center
07:05PM 46.0167 -66.1000 240° Southwest 450 518 43,000  Level Moncton Center
07:06PM 45.9667 -66.2500 244° Southwest 450 518 43,000  Level Moncton Center
07:07PM 45.8833 -66.4167 234° Southwest 460 529 43,000  Level Moncton Center
07:08PM 45.8167 -66.5500 234° Southwest 460 529 43,000  Level Moncton Center
07:09PM 45.7500 -66.7167 240° Southwest 460 529 43,000  Level Moncton Center
07:10PM 45.7000 -66.8833 247° West 460 529 43,000  Level Moncton Center
07:11PM 45.6333 -67.0500 240° Southwest 460 529 43,000  Level Moncton Center
07:12PM 45.5500 -67.2000 232° Southwest 460 529 43,000  Level Moncton Center
07:13PM 45.4833 -67.3500 238° Southwest 460 529 43,000  Level Moncton Center
07:14PM 45.4333 -67.5000 245° Southwest 460 529 43,000  Level Moncton Center
07:15PM 45.3850 -67.6400 244° Southwest 465 535 43,000  Level Boston Center
07:16PM 45.3181 -67.7933 238° Southwest 471 542 43,000  Level Boston Center
07:17PM 45.2494 -67.9522 239° Southwest 471 542 43,000  Level Boston Center
07:18PM 45.1728 -68.1292 238° Southwest 471 542 43,000  Level Boston Center
07:19PM 45.1056 -68.2842 238° Southwest 469 540 43,000  Level Boston Center
07:20PM 45.0378 -68.4358 238° Southwest 476 548 43,000  Level Boston Center
07:21PM 44.9703 -68.5903 238° Southwest 468 539 43,000  Level Boston Center
07:22PM 44.9003 -68.7472 238° Southwest 477 549 43,000  Level Boston Center
07:23PM 44.8458 -68.8681 238° Southwest 467 537 43,000  Level Boston Center
07:24PM 44.7722 -69.0567 241° Southwest 460 529 43,000  Level Boston Center
07:25PM 44.7100 -69.2122 241° Southwest 475 547 43,000  Level Boston Center
07:26PM 44.6672 -69.3256 242° Southwest 467 537 43,000  Level Boston Center
07:27PM 44.5889 -69.5133 240° Southwest 472 543 43,000  Level Boston Center
07:28PM 44.5281 -69.6708 242° Southwest 472 543 43,000  Level Boston Center
07:29PM 44.4631 -69.8281 240° Southwest 466 536 43,000  Level Boston Center
07:30PM 44.4017 -69.9817 241° Southwest 466 536 43,000  Level Boston Center
07:31PM 44.3383 -70.1383 241° Southwest 466 536 43,000  Level Boston Center
07:32PM 44.2767 -70.2914 241° Southwest 466 536 43,000  Level Boston Center
07:33PM 44.2108 -70.4475 240° Southwest 461 531 43,000  Level Boston Center
07:34PM 44.1425 -70.6117 240° Southwest 461 531 43,000  Level Boston Center
07:35PM 44.0803 -70.7639 240° Southwest 461 531 43,000  Level Boston Center
07:36PM 44.0197 -70.9069 240° Southwest 455 524 43,000  Level Boston Center
07:37PM 43.9714 -71.0294 241° Southwest 447 514 43,000  Level Boston Center
07:38PM 43.8942 -71.2042 239° Southwest 453 521 43,000  Level Boston Center
07:39PM 43.8311 -71.3494 239° Southwest 448 516 43,000  Level Boston Center
07:40PM 43.7719 -71.4914 240° Southwest 442 509 43,000  Level Boston Center
07:41PM 43.7208 -71.6186 241° Southwest 437 503 43,000  Level Boston Center
07:42PM 43.6592 -71.7628 239° Southwest 437 503 43,000 -300 Level Boston Center
07:43PM 43.5953 -71.9069 239° Southwest 437 503 42,400 -1,200 Descending Boston Center
07:44PM 43.5375 -72.0419 239° Southwest 437 503 40,600 -1,800 Descending Boston Center
07:45PM 43.4797 -72.1769 240° Southwest 425 489 38,900 -1,740 Descending Boston Center
07:46PM 43.4214 -72.3114 239° Southwest 420 483 37,200 -1,800 Descending Boston Center
07:47PM 43.3633 -72.4458 239° Southwest 420 483 35,400 -1,740 Descending Boston Center
07:48PM 43.3069 -72.5714 238° Southwest 408 470 33,800 -1,620 Descending Boston Center
07:49PM 43.2503 -72.6994 239° Southwest 403 464 32,200 -1,680 Descending Boston Center
07:50PM 43.1939 -72.8275 239° Southwest 403 464 30,500 -2,700 Descending Boston Center
07:51PM 43.1267 -72.9636 236° Southwest 403 464 26,800 -2,400 Descending Boston Center
07:52PM 43.0800 -73.0797 241° Southwest 402 463 25,700 -960 Descending Boston Center
07:53PM 43.0253 -73.2042 239° Southwest 402 463 24,900 -900 Descending Boston Center
07:54PM 42.9594 -73.3450 237° Southwest 385 443 23,800 -1,560 Descending Boston Center
07:55PM 42.9022 -73.4661 237° Southwest 380 437 21,500 -2,100 Descending Boston Center
07:56PM 42.8531 -73.5814 240° Southwest 370 426 19,700 -2,040 Descending Boston Center
07:57PM 42.7958 -73.6878 234° Southwest 358 412 17,500 -1,860 Descending Boston Center
07:58PM 42.7117 -73.7653 214° Southwest 358 412 16,000 -720 Descending Boston Center
07:59PM 42.6008 -73.7769 184° South 361 415 16,100  Climbing Boston Center
08:00PM 42.5008 -73.7806 182° South 390 449 16,100  Level Boston Center
08:01PM 42.3819 -73.7919 184° South 390 449 16,100 -300 Level Boston Center
08:02PM 42.2631 -73.8036 184° South 395 455 15,500 -900 Descending Boston Center
08:03PM 42.1692 -73.8128 184° South 388 447 14,300 -1,260 Descending Boston Center
08:04PM 42.0503 -73.8239 184° South 388 447 13,000 -1,200 Descending Boston Center
08:05PM 41.9625 -73.8306 183° South 376 433 11,900 -1,200 Descending Boston Center
08:06PM 41.8539 -73.8447 186° South 362 417 10,600 -960 Descending Boston Center
08:07PM 41.7664 -73.8511 183° South 356 410 10,000 -780 Descending Boston Center
08:08PM 41.6600 -73.8628 185° South 308 354 9,000 -960 Descending Boston Center
08:10PM 41.5667 -73.8667 182° South 285 328 7,800 -960 Descending New York TRACON
08:11PM 41.5000 -73.8667 180° South 288 331 7,000 -900 Descending New York TRACON
08:12PM 41.4167 -73.8167 156° South 291 335 6,100 -780 Descending New York TRACON
08:13PM 41.3500 -73.7667 151° Southeast 276 318 5,400 -1,140 Descending New York TRACON
08:14PM 41.2833 -73.7167 151° Southeast 273 314 3,900 -1,080 Descending New York TRACON
08:15PM 41.2167 -73.6667 151° Southeast 233 268 3,300 -780 Descending New York TRACON
08:16PM 41.1667 -73.6333 153° Southeast 227 261 2,400 -300 Descending New York TRACON
08:18PM 41.0667 -73.7000 246° West  Level FlightAware Approximate
08:19PM 41.0000 -73.5667 246° West 199 229 2,100  Level New York TRACON
08:20PM 40.9833 -73.6333 252° West 158 182 2,100  Level New York TRACON